Aérodrome :
LOGIN :

S'inscrire | Disclaimer

   EN    FR    IT 

 










Légende :    VFR   VFR Marginal   IFR   IFR Intensif   IFR Très Intensif
Visi : 
Plafond : 
>= 8 km
>= 3000ft
5 à 8 km
1000 à 3000 ft
1500m à 5 km
500 à 1000 ft
800 à 1500m
200 à 500 ft
< 800m
< 200 ft
Symboles :   Orages  Brouillard  Fortes neiges  Fortes précipitations  Vent > 20 kt
SIGMETs :   Divers  Orages  Givrage  Turbulence  Onde Orograph.  Cendres Volcan.






- Altitude de l'aérodrome : 353 ft
- Code IATA : ZAG


LDZA - Zagreb Pleso

DERNIER METAR :
  • 270630Z 24003KT 200V290 CAVOK 17/16 Q1016 NOSIG

METARs EXPIRÉS :
  • 270600Z 23003KT CAVOK 15/14 Q1016 NOSIG
  • 270530Z 20003KT CAVOK 15/13 Q1016 NOSIG
  • 270500Z 19003KT 160V220 CAVOK 15/13 Q1016 NOSIG
  • 270430Z 14003KT 120V180 CAVOK 15/13 Q1016 NOSIG
  • 270400Z 20003KT 170V240 CAVOK 15/14 Q1016 NOSIG

TAF TAF LDZA
Valide du 27 à 06h jusqu'au 28 à 06h UTC


270525Z 2706/2806 23005KT 9999 FEW030 SCT040 TX24/2712Z TN12/2805Z
BECMG 2711/2713 04008KT
PROB30
TEMPO 2711/2716 SHRA FEW030TCU BKN040
BECMG 2717/2719 VRB02KT
PROB40 2801/2806 1400 MIFG BR
PROB30 2803/2806 0500 FG VV002
ATIS : +385 1 6-259-214



MET'MAP, la Météo Aéronautique d'un coup d'oeil ! - Copyright ORBIFLY Décembre 2007 - Disclaimer

ORBIFLY MET'MAP TEAM :

Programmation & Développement : Alexandra Zaïnal
Sur une idée originale de : Baudouin d'Aumeries
Assistance à la programmation : Marc-Olivier Méhu
Soutien technique & logistique : Manuel Goepfert

Contact : metmap@orbifly.com




SOURCES & CREDITS :

   NOAA